Time;durP1;ratioP1;P1;durP2;ratioP2;P2;SDS_P1;SDS_P2;PMS_P1;PMS_P2;Temp;Humidity;BMP_temperature;BMP_pressure;BME280_temperature;BME280_humidity;BME280_pressure;Samples;Min_cycle;Max_cycle;Signal;HPM_P1;HPM_P2
2022/06/08 00:00:14;;;;;;;30.37;18.13;;;15.10;99.90;;;;;;5072198;28;20209;-60
2022/06/08 00:02:45;;;;;;;30.90;19.43;;;15.20;99.90;;;;;;5072213;28;20205;-61
2022/06/08 00:05:12;;;;;;;31.77;19.80;;;15.20;99.90;;;;;;5071802;28;20221;-60
2022/06/08 00:07:39;;;;;;;32.50;17.83;;;15.20;99.90;;;;;;5071862;28;20209;-61
2022/06/08 00:10:07;;;;;;;30.10;18.97;;;15.20;99.90;;;;;;5072199;28;20200;-62
2022/06/08 00:12:34;;;;;;;28.23;18.83;;;15.20;99.90;;;;;;5071917;28;20205;-62
2022/06/08 00:15:01;;;;;;;32.20;20.10;;;15.20;99.90;;;;;;5071827;28;20667;-62
2022/06/08 00:17:29;;;;;;;32.70;18.77;;;15.20;99.90;;;;;;5071373;28;20627;-62
2022/06/08 00:19:56;;;;;;;32.07;19.57;;;15.30;99.90;;;;;;5071763;28;20213;-62
2022/06/08 00:22:23;;;;;;;31.73;20.03;;;15.20;99.90;;;;;;5071899;28;20209;-62
2022/06/08 00:24:50;;;;;;;33.83;20.67;;;15.20;99.90;;;;;;5072020;28;20608;-61
2022/06/08 00:27:16;;;;;;;35.87;20.70;;;15.20;99.90;;;;;;5071678;28;20205;-61
2022/06/08 00:29:43;;;;;;;29.87;20.27;;;15.20;99.90;;;;;;5071889;28;20255;-62
2022/06/08 00:32:10;;;;;;;35.03;21.00;;;15.20;99.90;;;;;;5071864;28;20208;-61
2022/06/08 00:34:38;;;;;;;36.50;21.53;;;15.20;99.90;;;;;;5071681;28;20236;-63
2022/06/08 00:37:05;;;;;;;31.90;19.53;;;15.10;99.90;;;;;;5071626;28;20204;-62
2022/06/08 00:39:32;;;;;;;36.23;21.40;;;15.10;99.90;;;;;;5071382;28;20258;-61
2022/06/08 00:42:02;;;;;;;34.63;21.13;;;15.10;99.90;;;;;;5071759;28;20245;-60
2022/06/08 00:44:34;;;;;;;31.27;18.97;;;15.00;99.90;;;;;;5071797;28;20641;-61
2022/06/08 00:47:03;;;;;;;32.93;19.90;;;15.00;99.90;;;;;;5071036;28;20200;-59
2022/06/08 00:49:35;;;;;;;33.77;20.13;;;15.00;99.90;;;;;;5071855;28;20230;-62
2022/06/08 00:52:04;;;;;;;31.37;18.93;;;14.90;99.90;;;;;;5071575;28;20209;-63
2022/06/08 00:54:35;;;;;;;34.13;20.20;;;14.90;99.90;;;;;;5071377;28;20726;-62
2022/06/08 00:57:06;;;;;;;32.17;20.43;;;14.90;99.90;;;;;;5071234;28;20564;-62
2022/06/08 00:59:35;;;;;;;32.20;18.63;;;14.90;99.90;;;;;;5071413;28;20295;-61
2022/06/08 01:02:01;;;;;;;29.63;19.83;;;14.80;99.90;;;;;;5071508;28;20205;-62
2022/06/08 01:04:30;;;;;;;32.53;18.37;;;14.80;99.90;;;;;;5071340;28;20254;-61
2022/06/08 01:06:59;;;;;;;32.27;18.43;;;14.80;99.90;;;;;;5071209;28;20205;-62
2022/06/08 01:09:30;;;;;;;29.80;19.63;;;14.80;99.90;;;;;;5074067;28;20258;-62
2022/06/08 01:12:00;;;;;;;28.20;18.20;;;14.80;99.90;;;;;;5075478;28;20205;-61
2022/06/08 01:14:28;;;;;;;27.40;17.43;;;14.70;99.90;;;;;;5075451;28;20582;-61
2022/06/08 01:16:59;;;;;;;31.30;18.97;;;14.60;99.90;;;;;;5075216;28;20205;-62
2022/06/08 01:19:27;;;;;;;35.40;19.37;;;14.60;99.90;;;;;;5075513;28;20629;-62
2022/06/08 01:21:59;;;;;;;33.20;19.37;;;14.60;99.90;;;;;;5075268;28;20231;-62
2022/06/08 01:24:27;;;;;;;30.30;19.37;;;14.60;99.90;;;;;;5075178;28;20243;-62
2022/06/08 01:27:05;;;;;;;28.07;18.27;;;14.60;99.90;;;;;;5075012;28;20635;-63
2022/06/08 01:29:38;;;;;;;31.30;18.60;;;14.60;99.90;;;;;;5075353;28;20781;-60
2022/06/08 01:32:16;;;;;;;30.53;18.40;;;14.50;99.90;;;;;;5074920;28;20259;-62
2022/06/08 01:35:00;;;;;;;29.63;18.33;;;14.50;99.90;;;;;;5074711;28;20282;-62
2022/06/08 01:37:40;;;;;;;28.73;17.57;;;14.50;99.90;;;;;;5074598;28;20212;-62
2022/06/08 01:40:28;;;;;;;32.27;19.93;;;14.40;99.90;;;;;;5075115;28;20262;-63
2022/06/08 01:43:17;;;;;;;32.47;18.43;;;14.30;99.90;;;;;;5074694;28;20255;-63
2022/06/08 01:46:05;;;;;;;35.07;20.40;;;14.30;99.90;;;;;;5074629;28;20225;-62
2022/06/08 01:48:54;;;;;;;33.83;19.73;;;14.20;99.90;;;;;;5074745;28;20208;-62
2022/06/08 01:51:42;;;;;;;30.07;19.90;;;14.20;99.90;;;;;;5074473;28;20215;-62
2022/06/08 01:54:18;;;;;;;31.10;19.13;;;14.20;99.90;;;;;;5074525;28;20290;-62
2022/06/08 01:56:51;;;;;;;32.13;20.20;;;14.20;99.90;;;;;;5074413;28;20610;-63
2022/06/08 01:59:29;;;;;;;34.07;20.40;;;14.10;99.90;;;;;;5074410;28;20215;-60
2022/06/08 02:02:03;;;;;;;33.40;20.37;;;14.10;99.90;;;;;;5074444;28;20209;-62
2022/06/08 02:04:36;;;;;;;34.43;20.80;;;14.00;99.90;;;;;;5074351;28;20320;-62
2022/06/08 02:07:18;;;;;;;40.03;21.27;;;14.00;99.90;;;;;;5074006;28;20204;-63
2022/06/08 02:09:51;;;;;;;37.27;20.90;;;13.90;99.90;;;;;;5074346;28;20619;-61
2022/06/08 02:12:18;;;;;;;38.47;20.70;;;13.90;99.90;;;;;;5074081;28;20209;-63
2022/06/08 02:14:48;;;;;;;36.80;20.83;;;13.90;99.90;;;;;;5074268;28;20240;-62
2022/06/08 02:17:23;;;;;;;39.87;21.13;;;13.90;99.90;;;;;;5074000;28;20209;-61
2022/06/08 02:19:56;;;;;;;42.03;21.43;;;13.90;99.90;;;;;;5073242;28;20207;-61
2022/06/08 02:22:26;;;;;;;42.23;22.47;;;13.80;99.90;;;;;;5074035;28;20212;-62
2022/06/08 02:25:03;;;;;;;44.13;22.13;;;13.80;99.90;;;;;;5073801;28;20298;-62
2022/06/08 02:27:35;;;;;;;43.00;21.70;;;13.80;99.90;;;;;;5073694;28;20215;-62
2022/06/08 02:30:07;;;;;;;43.90;21.50;;;13.80;99.90;;;;;;5074254;28;20209;-61
2022/06/08 02:35:27;;;;;;;44.60;21.43;;;13.80;99.90;;;;;;5073443;28;20306;-62
2022/06/08 02:38:02;;;;;;;42.03;21.10;;;13.80;99.90;;;;;;5073837;28;20201;-61
2022/06/08 02:40:35;;;;;;;36.87;20.43;;;13.80;99.90;;;;;;5073799;28;20624;-61
2022/06/08 02:43:10;;;;;;;42.27;20.83;;;13.70;99.90;;;;;;5073753;28;20205;-61
2022/06/08 02:45:39;;;;;;;38.57;20.27;;;13.70;99.90;;;;;;5073452;28;20227;-60
2022/06/08 02:48:09;;;;;;;41.93;20.50;;;13.70;99.90;;;;;;5073548;28;20256;-62
2022/06/08 02:50:38;;;;;;;37.50;19.73;;;13.70;99.90;;;;;;5073696;28;20208;-62
2022/06/08 02:53:25;;;;;;;46.73;20.93;;;13.70;99.90;;;;;;5073688;28;20698;-61
2022/06/08 02:56:03;;;;;;;39.83;19.77;;;13.70;99.90;;;;;;5072862;28;20281;-61
2022/06/08 02:58:36;;;;;;;40.83;20.60;;;13.70;99.90;;;;;;5073696;28;20220;-64
2022/06/08 03:01:12;;;;;;;36.33;18.80;;;13.70;99.90;;;;;;5073717;28;20654;-62
2022/06/08 03:03:45;;;;;;;42.07;19.07;;;13.70;99.90;;;;;;5073259;28;20231;-62
2022/06/08 03:06:16;;;;;;;38.90;19.10;;;13.70;99.90;;;;;;5072974;28;20299;-61
2022/06/08 03:08:49;;;;;;;42.27;18.60;;;13.70;99.90;;;;;;5073187;28;20266;-62
2022/06/08 03:11:18;;;;;;;42.27;19.53;;;13.60;99.90;;;;;;5073530;28;20208;-62
2022/06/08 03:13:52;;;;;;;44.80;19.90;;;13.70;99.90;;;;;;5072992;28;20274;-62
2022/06/08 03:16:27;;;;;;;45.53;20.00;;;13.70;99.90;;;;;;5072697;28;20645;-62
2022/06/08 03:18:54;;;;;;;47.67;20.73;;;13.70;99.90;;;;;;5072675;28;20250;-62
2022/06/08 03:21:21;;;;;;;42.43;19.53;;;13.70;99.90;;;;;;5072820;28;20670;-62
2022/06/08 03:23:49;;;;;;;44.67;19.83;;;13.70;99.90;;;;;;5073024;28;20633;-61
2022/06/08 03:26:17;;;;;;;41.30;19.90;;;13.70;99.90;;;;;;5072286;28;20205;-62
2022/06/08 03:28:44;;;;;;;47.20;18.93;;;13.70;99.90;;;;;;5073200;28;20235;-62
2022/06/08 03:31:11;;;;;;;43.67;18.67;;;13.70;99.90;;;;;;5072606;28;20218;-62
2022/06/08 03:33:37;;;;;;;43.53;18.33;;;13.70;99.90;;;;;;5072549;28;20235;-61
2022/06/08 03:36:04;;;;;;;36.63;17.30;;;13.70;99.90;;;;;;5072409;28;20274;-61
2022/06/08 03:38:31;;;;;;;36.37;17.17;;;13.70;99.90;;;;;;5072755;28;20720;-62
2022/06/08 03:40:58;;;;;;;39.60;18.40;;;13.70;99.90;;;;;;5073075;28;20250;-62
2022/06/08 03:43:26;;;;;;;44.27;18.43;;;13.70;99.90;;;;;;5072575;28;20208;-62
2022/06/08 03:45:56;;;;;;;39.57;17.53;;;13.80;99.90;;;;;;5072052;28;20236;-62
2022/06/08 03:48:23;;;;;;;39.83;18.27;;;13.80;99.90;;;;;;5072426;28;20235;-62
2022/06/08 03:50:53;;;;;;;39.00;17.47;;;13.80;99.90;;;;;;5072249;28;20201;-63
2022/06/08 03:53:23;;;;;;;37.63;17.57;;;13.80;99.90;;;;;;5072307;28;20278;-62
2022/06/08 03:55:52;;;;;;;35.00;16.23;;;13.90;99.90;;;;;;5072221;28;20225;-62
2022/06/08 03:58:20;;;;;;;42.33;17.73;;;13.90;99.90;;;;;;5072227;28;20301;-62
2022/06/08 04:00:49;;;;;;;39.50;18.00;;;13.90;99.90;;;;;;5071964;28;20741;-62
2022/06/08 04:03:16;;;;;;;33.43;16.30;;;14.00;99.90;;;;;;5072354;28;20262;-63
2022/06/08 04:05:43;;;;;;;34.47;16.03;;;14.10;99.90;;;;;;5072011;28;20638;-62
2022/06/08 04:08:10;;;;;;;35.27;16.33;;;14.20;99.90;;;;;;5071936;28;20671;-63
2022/06/08 04:10:37;;;;;;;31.60;15.70;;;14.20;99.90;;;;;;5071901;28;20295;-62
2022/06/08 04:13:03;;;;;;;28.83;15.23;;;14.20;99.90;;;;;;5071926;28;20201;-62
2022/06/08 04:15:45;;;;;;;33.37;15.73;;;14.30;99.90;;;;;;5071670;28;20290;-62
2022/06/08 04:18:17;;;;;;;30.73;13.60;;;14.30;99.90;;;;;;5071657;28;20235;-62
2022/06/08 04:20:45;;;;;;;29.33;15.03;;;14.40;99.90;;;;;;5072160;28;20204;-59
2022/06/08 04:23:13;;;;;;;27.90;13.83;;;14.40;99.90;;;;;;5071711;28;20812;-61
2022/06/08 04:25:42;;;;;;;31.43;14.50;;;14.40;99.90;;;;;;5071632;28;20217;-61
2022/06/08 04:28:09;;;;;;;27.67;14.23;;;14.40;99.90;;;;;;5071538;28;20205;-62
2022/06/08 04:30:35;;;;;;;26.43;13.10;;;14.40;99.90;;;;;;5072000;28;20209;-59
2022/06/08 04:33:03;;;;;;;25.20;12.13;;;14.50;99.90;;;;;;5071814;28;20212;-58
2022/06/08 04:35:32;;;;;;;21.83;12.53;;;14.50;99.90;;;;;;5071820;28;20282;-59
2022/06/08 04:37:59;;;;;;;27.23;11.57;;;14.50;99.90;;;;;;5071279;28;20703;-62
2022/06/08 04:40:26;;;;;;;19.67;11.90;;;14.50;99.90;;;;;;5071746;28;20274;-59
2022/06/08 04:42:53;;;;;;;15.37;10.17;;;14.60;99.90;;;;;;5071365;28;20209;-62
2022/06/08 04:45:20;;;;;;;15.57;9.27;;;14.60;99.90;;;;;;5071682;28;20658;-61
2022/06/08 04:47:47;;;;;;;12.67;7.90;;;14.60;99.90;;;;;;5071318;28;20204;-62
2022/06/08 04:50:14;;;;;;;15.33;8.90;;;14.60;99.90;;;;;;5071529;28;20205;-61
2022/06/08 04:52:42;;;;;;;13.90;7.90;;;14.60;99.90;;;;;;5070119;28;20235;-63
2022/06/08 04:55:11;;;;;;;12.77;7.13;;;14.60;99.90;;;;;;5070778;28;20698;-64
2022/06/08 04:57:38;;;;;;;10.30;7.00;;;14.60;99.90;;;;;;5071071;28;20204;-63
2022/06/08 05:00:07;;;;;;;8.13;5.90;;;14.60;99.90;;;;;;5071644;28;20209;-62
2022/06/08 05:02:47;;;;;;;8.73;5.60;;;14.60;99.90;;;;;;5071144;28;20252;-62
2022/06/08 05:05:17;;;;;;;7.50;5.70;;;14.70;99.90;;;;;;5071196;28;20217;-62
2022/06/08 05:07:45;;;;;;;7.13;5.43;;;14.70;99.90;;;;;;5071022;28;20209;-63
2022/06/08 05:10:12;;;;;;;7.53;6.10;;;14.70;99.90;;;;;;5071606;28;20209;-63
2022/06/08 05:12:39;;;;;;;7.33;5.47;;;14.80;99.90;;;;;;5071452;28;20274;-62
2022/06/08 05:15:08;;;;;;;5.70;4.97;;;14.80;99.90;;;;;;5070932;28;20648;-62
2022/06/08 05:17:35;;;;;;;9.07;5.20;;;14.90;99.90;;;;;;5071191;28;20239;-62
2022/06/08 05:20:02;;;;;;;7.30;4.63;;;15.00;99.90;;;;;;5070808;28;20266;-63
2022/06/08 05:22:29;;;;;;;8.77;5.03;;;15.10;99.90;;;;;;5071263;28;20201;-63
2022/06/08 05:24:57;;;;;;;7.23;4.90;;;15.20;99.90;;;;;;5070855;28;20788;-63
2022/06/08 05:27:24;;;;;;;7.93;4.50;;;15.20;99.90;;;;;;5071143;28;20212;-64
2022/06/08 05:29:51;;;;;;;8.17;4.70;;;15.20;99.90;;;;;;5071113;28;20209;-64
2022/06/08 05:32:17;;;;;;;6.50;4.57;;;15.30;99.90;;;;;;5070757;28;20266;-64
2022/06/08 05:34:44;;;;;;;7.70;5.53;;;15.40;99.90;;;;;;5071005;28;20225;-63
2022/06/08 05:37:10;;;;;;;6.70;4.93;;;15.50;99.90;;;;;;5070437;28;20211;-64
2022/06/08 05:39:37;;;;;;;6.50;5.10;;;15.50;99.90;;;;;;5061956;28;20228;-65
2022/06/08 05:42:07;;;;;;;6.57;4.83;;;15.60;99.90;;;;;;5069908;28;20259;-66
2022/06/08 05:44:34;;;;;;;6.20;4.60;;;15.60;99.90;;;;;;5070492;28;20321;-65
2022/06/08 05:47:00;;;;;;;6.37;4.27;;;15.60;99.90;;;;;;5069849;28;20255;-66
2022/06/08 05:49:27;;;;;;;8.13;4.63;;;15.70;99.90;;;;;;5070343;28;20213;-66
2022/06/08 05:51:54;;;;;;;4.07;3.67;;;15.80;99.90;;;;;;5070519;28;20213;-65
2022/06/08 05:54:21;;;;;;;7.17;4.00;;;15.80;99.90;;;;;;5070258;28;20316;-65
2022/06/08 05:56:47;;;;;;;7.83;4.37;;;15.90;99.90;;;;;;5072982;28;20274;-64
2022/06/08 05:59:15;;;;;;;4.50;3.80;;;15.90;99.90;;;;;;5073945;28;20297;-66
2022/06/08 06:01:42;;;;;;;6.30;3.37;;;16.00;99.90;;;;;;5073332;28;20209;-65
2022/06/08 06:04:09;;;;;;;4.60;3.60;;;16.20;99.90;;;;;;5073920;28;20229;-65
2022/06/08 06:06:38;;;;;;;5.33;3.27;;;16.30;99.90;;;;;;5073599;28;20668;-66
2022/06/08 06:09:06;;;;;;;2.70;2.50;;;16.40;99.90;;;;;;5074342;28;20209;-66
2022/06/08 06:11:32;;;;;;;9.27;3.07;;;16.40;99.90;;;;;;5074220;28;20262;-66
2022/06/08 06:13:59;;;;;;;7.87;3.00;;;16.50;99.90;;;;;;5073673;28;20335;-66
2022/06/08 06:16:27;;;;;;;3.13;2.50;;;16.60;99.90;;;;;;5073456;28;20229;-66
2022/06/08 06:18:54;;;;;;;3.37;2.50;;;16.60;99.90;;;;;;5073629;28;20209;-70
2022/06/08 06:21:25;;;;;;;4.10;2.50;;;16.70;99.90;;;;;;5073345;28;20258;-68
2022/06/08 06:23:51;;;;;;;3.30;2.27;;;16.90;99.90;;;;;;5073230;28;20275;-69
2022/06/08 06:26:18;;;;;;;2.70;1.90;;;17.00;99.90;;;;;;5072982;28;20204;-68
2022/06/08 06:28:45;;;;;;;1.90;1.60;;;17.10;99.90;;;;;;5073223;28;20209;-67
2022/06/08 06:31:15;;;;;;;2.37;1.90;;;17.10;99.90;;;;;;5072481;28;20209;-66
2022/06/08 06:33:43;;;;;;;2.67;1.90;;;17.20;99.90;;;;;;5073560;28;20242;-66
2022/06/08 06:36:10;;;;;;;4.23;2.00;;;17.20;99.90;;;;;;5072673;28;20217;-64
2022/06/08 06:38:37;;;;;;;2.13;1.77;;;17.20;99.90;;;;;;5073356;28;20209;-63
2022/06/08 06:41:04;;;;;;;3.43;2.10;;;17.30;99.90;;;;;;5072907;28;20205;-65
2022/06/08 06:43:30;;;;;;;4.17;1.80;;;17.40;99.90;;;;;;5073126;28;20594;-64
2022/06/08 06:45:57;;;;;;;2.60;1.80;;;17.40;99.90;;;;;;5072517;28;20202;-64
2022/06/08 06:48:24;;;;;;;3.17;1.90;;;17.50;99.90;;;;;;5073022;28;20201;-65
2022/06/08 06:50:52;;;;;;;4.60;1.50;;;17.50;99.90;;;;;;5073189;28;20216;-67
2022/06/08 06:53:19;;;;;;;3.83;1.67;;;17.50;99.90;;;;;;5073774;28;20213;-63
2022/06/08 06:55:46;;;;;;;2.10;1.90;;;17.50;99.90;;;;;;5072686;28;20225;-64
2022/06/08 06:58:12;;;;;;;2.40;1.60;;;17.50;99.90;;;;;;5073639;28;20259;-63
2022/06/08 07:00:39;;;;;;;1.80;1.50;;;17.50;99.90;;;;;;5073233;28;20631;-65
2022/06/08 07:03:06;;;;;;;2.17;1.50;;;17.60;99.90;;;;;;5073112;28;20204;-65
2022/06/08 07:05:35;;;;;;;3.43;1.53;;;17.70;99.90;;;;;;5072473;28;20646;-65
2022/06/08 07:08:03;;;;;;;2.97;1.47;;;17.80;99.90;;;;;;5071882;28;20231;-65
2022/06/08 07:10:30;;;;;;;4.97;1.40;;;18.00;99.90;;;;;;5072819;28;20215;-64
2022/06/08 07:12:57;;;;;;;1.57;1.10;;;18.10;99.90;;;;;;5072505;28;20693;-64
2022/06/08 07:15:24;;;;;;;3.70;1.57;;;18.10;99.90;;;;;;5072194;28;20229;-64
2022/06/08 07:17:51;;;;;;;2.43;1.60;;;18.20;99.90;;;;;;5072287;28;20205;-64
2022/06/08 07:20:19;;;;;;;2.83;1.50;;;18.30;99.90;;;;;;5071602;28;20201;-64
2022/06/08 07:22:46;;;;;;;3.90;1.10;;;18.30;99.90;;;;;;5072374;28;20209;-64
2022/06/08 07:25:16;;;;;;;4.43;1.30;;;18.40;99.90;;;;;;5071631;28;20279;-64
2022/06/08 07:27:43;;;;;;;2.90;1.13;;;18.60;99.90;;;;;;5071894;28;20652;-65
2022/06/08 07:30:11;;;;;;;2.60;1.33;;;18.70;99.90;;;;;;5071951;28;20204;-65
2022/06/08 07:32:38;;;;;;;2.93;1.17;;;18.80;99.90;;;;;;5072237;28;20620;-65
2022/06/08 07:35:07;;;;;;;2.50;1.10;;;18.80;99.90;;;;;;5072112;28;20286;-66
2022/06/08 07:37:34;;;;;;;1.53;0.80;;;19.00;99.90;;;;;;5071355;28;20615;-65
2022/06/08 07:40:00;;;;;;;4.20;1.20;;;19.10;99.90;;;;;;5072057;28;20255;-70
2022/06/08 07:42:28;;;;;;;2.37;1.17;;;19.10;99.90;;;;;;5071829;28;20231;-66
2022/06/08 07:44:55;;;;;;;1.40;1.10;;;19.20;99.90;;;;;;5071852;28;20239;-67
2022/06/08 07:47:22;;;;;;;3.20;1.43;;;19.30;99.90;;;;;;5071901;28;20205;-67
2022/06/08 07:49:49;;;;;;;1.20;1.00;;;19.40;99.90;;;;;;5071406;28;20699;-66
2022/06/08 07:52:18;;;;;;;1.27;0.97;;;19.40;99.90;;;;;;5071303;28;20831;-65
2022/06/08 07:54:47;;;;;;;2.17;1.00;;;19.50;99.90;;;;;;5071317;28;20332;-65
2022/06/08 07:57:17;;;;;;;1.50;1.10;;;19.50;99.90;;;;;;5071241;28;20229;-64
2022/06/08 07:59:45;;;;;;;2.60;1.00;;;19.60;99.90;;;;;;5071689;28;20233;-64
2022/06/08 08:02:12;;;;;;;2.37;0.97;;;19.50;87.10;;;;;;5070784;28;20274;-65
2022/06/08 08:04:39;;;;;;;1.70;0.90;;;19.60;89.70;;;;;;5071713;28;20293;-65
2022/06/08 08:07:06;;;;;;;2.40;0.90;;;19.70;85.60;;;;;;5070998;28;20205;-65
2022/06/08 08:09:34;;;;;;;1.20;0.70;;;19.80;18.00;;;;;;5071728;28;20250;-65
2022/06/08 08:12:02;;;;;;;1.57;0.80;;;19.80;1.00;;;;;;5071135;28;20232;-65
2022/06/08 08:14:33;;;;;;;2.53;0.67;;;19.70;1.00;;;;;;5070837;28;20228;-64
2022/06/08 08:17:02;;;;;;;1.47;0.60;;;19.80;99.90;;;;;;5070808;28;20224;-63
2022/06/08 08:19:28;;;;;;;1.93;0.70;;;19.90;1.00;;;;;;5070553;28;20205;-64
2022/06/08 08:21:56;;;;;;;1.37;0.97;;;19.90;99.90;;;;;;5071164;28;20204;-64
2022/06/08 08:24:23;;;;;;;1.77;0.73;;;19.90;1.00;;;;;;5071300;28;20650;-65
2022/06/08 08:26:51;;;;;;;1.10;0.77;;;20.00;27.40;;;;;;5070517;28;20672;-64
2022/06/08 08:29:18;;;;;;;1.40;0.70;;;20.20;1.00;;;;;;5071412;28;20685;-65
2022/06/08 08:31:45;;;;;;;0.90;0.80;;;20.40;99.90;;;;;;5070335;28;20208;-63
2022/06/08 08:34:13;;;;;;;1.27;0.70;;;20.50;1.00;;;;;;5071388;28;20232;-65
2022/06/08 08:36:40;;;;;;;1.23;0.90;;;20.50;99.90;;;;;;5070585;28;20229;-65
2022/06/08 08:39:07;;;;;;;3.50;0.70;;;20.60;1.00;;;;;;5070949;28;20270;-64
2022/06/08 08:44:37;;;;;;;1.50;1.00;;;20.30;99.90;;;;;;5070880;28;20223;-64
2022/06/08 08:47:13;;;;;;;0.87;0.80;;;20.40;1.00;;;;;;5070804;28;20205;-64
2022/06/08 08:49:47;;;;;;;1.53;0.90;;;20.30;99.90;;;;;;5070581;28;20201;-64
2022/06/08 08:52:20;;;;;;;2.60;1.10;;;20.50;1.00;;;;;;5070533;28;20254;-63
2022/06/08 08:54:57;;;;;;;1.13;0.80;;;20.60;1.00;;;;;;5071241;28;20227;-65
2022/06/08 08:57:30;;;;;;;1.03;0.80;;;20.90;1.00;;;;;;5070327;28;20232;-64
2022/06/08 08:59:57;;;;;;;3.07;0.90;;;21.00;99.90;;;;;;5070598;28;20291;-63
2022/06/08 09:05:28;;;;;;;3.70;1.47;;;21.40;99.90;;;;;;5048204;28;20303;-65
2022/06/08 09:07:56;;;;;;;1.10;0.80;;;21.30;12.10;;;;;;5064869;28;20274;-63
2022/06/08 09:10:25;;;;;;;2.70;0.90;;;21.30;1.00;;;;;;5070899;28;20209;-64
2022/06/08 09:12:53;;;;;;;3.07;0.87;;;21.10;1.00;;;;;;5071133;28;20201;-64
2022/06/08 09:15:45;;;;;;;2.13;0.93;;;21.20;1.00;;;;;;5070099;28;20270;-62
2022/06/08 09:18:20;;;;;;;3.37;0.97;;;21.20;99.90;;;;;;5070316;28;20225;-63
2022/06/08 09:20:49;;;;;;;2.73;1.03;;;21.20;99.90;;;;;;5070026;28;20208;-62
2022/06/08 09:23:27;;;;;;;1.87;0.80;;;21.30;1.00;;;;;;5070776;28;20625;-63
2022/06/08 09:26:07;;;;;;;1.97;1.00;;;21.40;99.90;;;;;;5070048;28;20592;-64
2022/06/08 09:28:35;;;;;;;1.77;1.00;;;21.20;99.90;;;;;;5070348;28;20219;-66
2022/06/08 09:31:02;;;;;;;2.33;1.10;;;21.00;99.90;;;;;;5073651;28;20204;-64
2022/06/08 09:33:34;;;;;;;1.20;0.90;;;20.90;99.90;;;;;;5074294;28;20296;-65
2022/06/08 09:36:05;;;;;;;1.80;0.90;;;20.70;99.90;;;;;;5073714;28;20236;-64
2022/06/08 09:38:36;;;;;;;2.43;1.10;;;20.80;99.90;;;;;;5073589;28;20874;-68
2022/06/08 09:41:15;;;;;;;1.10;1.00;;;20.60;99.90;;;;;;5073819;28;20211;-65
2022/06/08 09:44:06;;;;;;;2.47;0.87;;;20.50;99.90;;;;;;5073917;28;20209;-63
2022/06/08 09:52:35;;;;;;;1.80;1.20;;;20.40;99.90;;;;;;5073739;28;20204;-62
2022/06/08 09:55:12;;;;;;;5.97;1.20;;;20.60;1.00;;;;;;5073472;28;20263;-64
2022/06/08 09:57:48;;;;;;;3.50;1.33;;;20.80;99.90;;;;;;5073760;28;20759;-62
2022/06/08 10:00:21;;;;;;;1.47;1.17;;;20.90;99.90;;;;;;5073455;28;20274;-64
2022/06/08 10:02:59;;;;;;;4.27;1.20;;;21.10;99.90;;;;;;5073841;28;20238;-63
2022/06/08 10:05:34;;;;;;;3.23;1.20;;;21.10;99.90;;;;;;5073612;28;20607;-64
2022/06/08 10:08:15;;;;;;;1.17;1.00;;;21.00;99.90;;;;;;5073572;28;20201;-65
2022/06/08 10:10:52;;;;;;;3.57;1.30;;;20.80;54.10;;;;;;5073612;28;20854;-64
2022/06/08 10:13:26;;;;;;;6.17;1.40;;;21.00;91.10;;;;;;5073569;28;20212;-62
2022/06/08 10:15:55;;;;;;;4.70;1.07;;;21.30;11.00;;;;;;5073104;28;20213;-65
2022/06/08 10:18:26;;;;;;;5.37;1.27;;;21.60;25.10;;;;;;5073604;28;20229;-64
2022/06/08 10:20:55;;;;;;;2.57;0.93;;;21.40;1.00;;;;;;5073791;28;20209;-68
2022/06/08 10:23:32;;;;;;;3.43;0.90;;;21.30;1.00;;;;;;5075002;28;20270;-66
2022/06/08 10:26:04;;;;;;;2.43;1.00;;;21.40;1.00;;;;;;5072796;28;20637;-66
2022/06/08 10:28:39;;;;;;;5.10;1.10;;;21.30;1.00;;;;;;5073273;28;20667;-65
2022/06/08 10:31:13;;;;;;;2.80;0.90;;;21.40;1.00;;;;;;5072624;28;20204;-63
2022/06/08 10:33:45;;;;;;;2.50;1.27;;;21.70;1.00;;;;;;5072876;28;20280;-64
2022/06/08 10:36:12;;;;;;;2.60;1.00;;;21.80;1.00;;;;;;5072425;28;20209;-64
2022/06/08 10:38:43;;;;;;;2.77;1.10;;;21.60;1.00;;;;;;5072506;28;20727;-63
2022/06/08 10:44:28;;;;;;;1.87;0.90;;;21.20;1.00;;;;;;5072887;28;20219;-65
2022/06/08 10:46:55;;;;;;;3.40;1.20;;;21.00;1.00;;;;;;5072667;28;20215;-67
2022/06/08 10:49:50;;;;;;;2.47;1.07;;;20.90;1.00;;;;;;5072773;28;20209;-66
2022/06/08 10:52:29;;;;;;;3.53;1.20;;;20.80;1.00;;;;;;5072452;28;20209;-66
2022/06/08 10:55:36;;;;;;;3.07;1.20;;;20.90;1.00;;;;;;5072503;28;20286;-67
2022/06/08 10:58:06;;;;;;;3.17;1.30;;;21.00;1.00;;;;;;5072693;28;20228;-65
2022/06/08 11:01:01;;;;;;;2.27;1.20;;;21.00;1.00;;;;;;5072354;28;20205;-65
2022/06/08 11:03:55;;;;;;;3.07;1.27;;;21.10;1.00;;;;;;5072862;28;20212;-66
2022/06/08 11:06:58;;;;;;;2.17;1.00;;;21.30;1.00;;;;;;5072326;28;20209;-65
2022/06/08 11:09:57;;;;;;;3.20;0.80;;;21.50;1.00;;;;;;5072549;28;20296;-63
2022/06/08 11:12:39;;;;;;;4.47;0.97;;;21.70;1.00;;;;;;5029525;28;20261;-64
2022/06/08 11:15:13;;;;;;;3.23;1.07;;;21.60;1.00;;;;;;5066898;28;20240;-64
2022/06/08 11:17:48;;;;;;;2.70;1.10;;;21.60;1.00;;;;;;5071826;28;20220;-65
2022/06/08 11:20:19;;;;;;;3.87;1.00;;;21.90;1.00;;;;;;5071804;28;20360;-63
2022/06/08 11:22:51;;;;;;;1.93;1.20;;;22.00;1.00;;;;;;5072530;28;20205;-63
2022/06/08 11:25:25;;;;;;;2.43;1.20;;;22.10;1.00;;;;;;5072511;28;20224;-63
2022/06/08 11:28:25;;;;;;;3.77;1.30;;;21.80;1.00;;;;;;5073475;28;20254;-63
2022/06/08 11:30:54;;;;;;;3.50;1.20;;;21.70;1.00;;;;;;5073578;28;20209;-65
2022/06/08 11:33:22;;;;;;;4.53;1.03;;;21.60;1.00;;;;;;5072494;28;20209;-62
2022/06/08 11:36:10;;;;;;;2.13;1.10;;;21.30;1.00;;;;;;5071870;28;20225;-64
2022/06/08 11:38:55;;;;;;;5.63;1.27;;;20.70;1.00;;;;;;5072140;28;20264;-61
2022/06/08 11:41:30;;;;;;;1.77;1.10;;;20.20;6.90;;;;;;5071376;28;20254;-65
2022/06/08 11:44:00;;;;;;;3.87;1.30;;;19.70;99.90;;;;;;5071988;28;20236;-64
2022/06/08 11:46:36;;;;;;;4.70;1.30;;;19.10;1.00;;;;;;5071617;28;20209;-62
2022/06/08 11:49:05;;;;;;;7.60;1.70;;;18.40;99.90;;;;;;5071623;28;20209;-65
2022/06/08 11:51:35;;;;;;;3.83;1.70;;;18.10;1.00;;;;;;5071076;28;20213;-66
2022/06/08 11:54:17;;;;;;;5.00;1.70;;;17.90;99.90;;;;;;5071182;28;20715;-64
2022/06/08 11:56:58;;;;;;;3.57;1.70;;;17.60;99.90;;;;;;5071584;28;20212;-65
2022/06/08 11:59:25;;;;;;;4.83;1.97;;;17.30;99.90;;;;;;5071460;28;20209;-61
2022/06/08 12:01:55;;;;;;;6.67;1.90;;;16.90;99.90;;;;;;5070758;28;20209;-61
2022/06/08 12:04:25;;;;;;;3.33;1.87;;;17.00;99.90;;;;;;5071642;28;20252;-64
2022/06/08 12:06:56;;;;;;;8.07;2.33;;;17.10;99.90;;;;;;5070692;28;20216;-63
2022/06/08 12:09:26;;;;;;;6.60;2.20;;;17.00;99.90;;;;;;5071633;28;20212;-63
2022/06/08 12:11:58;;;;;;;3.33;2.20;;;17.00;99.90;;;;;;5070733;28;20235;-62
2022/06/08 12:14:28;;;;;;;5.77;2.20;;;17.00;99.90;;;;;;5071154;28;20237;-62
2022/06/08 12:16:59;;;;;;;4.87;2.10;;;16.90;99.90;;;;;;5071190;28;20204;-63
2022/06/08 12:19:29;;;;;;;5.83;2.73;;;16.90;99.90;;;;;;5070549;28;20232;-64
2022/06/08 12:22:11;;;;;;;6.20;2.40;;;16.90;99.90;;;;;;5070496;28;20282;-62
2022/06/08 12:24:38;;;;;;;6.90;2.67;;;16.90;99.90;;;;;;5070829;28;20639;-62
2022/06/08 12:27:23;;;;;;;7.70;3.20;;;16.90;99.90;;;;;;5070792;28;20213;-61
2022/06/08 12:29:54;;;;;;;4.93;2.77;;;17.00;99.90;;;;;;5069789;28;20200;-62
2022/06/08 12:32:30;;;;;;;5.17;2.73;;;17.10;99.90;;;;;;5071057;28;20201;-62
2022/06/08 12:35:29;;;;;;;5.80;2.77;;;17.20;99.90;;;;;;5071344;28;20229;-62
2022/06/08 12:38:19;;;;;;;3.50;2.23;;;17.20;99.90;;;;;;5070891;28;20608;-61
2022/06/08 12:41:00;;;;;;;4.03;2.20;;;17.30;99.90;;;;;;5070669;28;20212;-61
2022/06/08 12:43:38;;;;;;;4.27;2.40;;;17.20;99.90;;;;;;5070928;28;20205;-61
2022/06/08 12:46:23;;;;;;;5.23;2.37;;;17.30;99.90;;;;;;5070717;28;20240;-63
2022/06/08 12:48:59;;;;;;;6.10;2.63;;;17.20;99.90;;;;;;5070862;28;20197;-66
2022/06/08 12:51:42;;;;;;;5.50;2.57;;;17.10;99.90;;;;;;5070441;28;20265;-64
2022/06/08 12:54:16;;;;;;;6.40;2.73;;;17.10;99.90;;;;;;5070498;28;20227;-63
2022/06/08 12:56:45;;;;;;;6.17;2.53;;;17.20;99.90;;;;;;5070580;28;20204;-63
2022/06/08 12:59:14;;;;;;;5.40;2.90;;;17.00;99.90;;;;;;5070895;28;20237;-63
2022/06/08 13:01:44;;;;;;;4.30;2.57;;;16.90;99.90;;;;;;5070428;28;20236;-62
2022/06/08 13:04:12;;;;;;;6.97;2.60;;;16.90;99.90;;;;;;5071879;28;20232;-64
2022/06/08 13:06:39;;;;;;;7.00;2.77;;;16.90;99.90;;;;;;5074066;28;20674;-65
2022/06/08 13:09:10;;;;;;;8.53;3.83;;;17.00;99.90;;;;;;5075359;28;20258;-63
2022/06/08 13:11:37;;;;;;;5.83;2.97;;;17.10;99.90;;;;;;5074147;28;20220;-65
2022/06/08 13:14:04;;;;;;;3.70;2.33;;;17.20;99.90;;;;;;5074991;28;20225;-65
2022/06/08 13:16:32;;;;;;;3.63;2.40;;;17.10;99.90;;;;;;5074331;28;20252;-64
2022/06/08 13:18:59;;;;;;;9.10;3.03;;;17.20;99.90;;;;;;5074347;28;20282;-64